sensor_id;sensor_type;location;lat;lon;timestamp;P1;durP1;ratioP1;P2;durP2;ratioP2
14373;SDS011;7270;49.004;12.066;2023-02-01T00:02:04;1.10;;;1.10;;
14373;SDS011;7270;49.004;12.066;2023-02-01T00:04:32;1.23;;;1.20;;
14373;SDS011;7270;49.004;12.066;2023-02-01T00:06:58;1.10;;;1.10;;
14373;SDS011;7270;49.004;12.066;2023-02-01T00:09:25;1.10;;;1.10;;
14373;SDS011;7270;49.004;12.066;2023-02-01T00:11:52;1.10;;;1.10;;
14373;SDS011;7270;49.004;12.066;2023-02-01T00:14:18;1.30;;;1.30;;
14373;SDS011;7270;49.004;12.066;2023-02-01T00:16:44;1.27;;;1.20;;
14373;SDS011;7270;49.004;12.066;2023-02-01T00:19:11;1.10;;;1.10;;
14373;SDS011;7270;49.004;12.066;2023-02-01T00:21:39;1.10;;;1.10;;
14373;SDS011;7270;49.004;12.066;2023-02-01T00:24:06;1.10;;;1.10;;
14373;SDS011;7270;49.004;12.066;2023-02-01T00:26:36;1.10;;;1.10;;
14373;SDS011;7270;49.004;12.066;2023-02-01T00:29:04;1.10;;;1.10;;
14373;SDS011;7270;49.004;12.066;2023-02-01T00:31:31;1.10;;;1.10;;
14373;SDS011;7270;49.004;12.066;2023-02-01T00:33:57;1.10;;;1.10;;
14373;SDS011;7270;49.004;12.066;2023-02-01T00:36:24;1.10;;;1.10;;
14373;SDS011;7270;49.004;12.066;2023-02-01T00:38:51;1.13;;;1.13;;
14373;SDS011;7270;49.004;12.066;2023-02-01T00:41:18;1.10;;;1.10;;
14373;SDS011;7270;49.004;12.066;2023-02-01T00:43:45;1.13;;;1.13;;
14373;SDS011;7270;49.004;12.066;2023-02-01T00:46:13;1.10;;;1.10;;
14373;SDS011;7270;49.004;12.066;2023-02-01T00:48:39;1.10;;;1.10;;
14373;SDS011;7270;49.004;12.066;2023-02-01T00:51:07;1.20;;;1.20;;
14373;SDS011;7270;49.004;12.066;2023-02-01T00:53:36;1.10;;;1.10;;
14373;SDS011;7270;49.004;12.066;2023-02-01T00:56:04;1.20;;;1.20;;
14373;SDS011;7270;49.004;12.066;2023-02-01T00:58:31;1.20;;;1.20;;
14373;SDS011;7270;49.004;12.066;2023-02-01T01:01:01;1.30;;;1.30;;
14373;SDS011;7270;49.004;12.066;2023-02-01T01:03:28;1.20;;;1.20;;
14373;SDS011;7270;49.004;12.066;2023-02-01T01:05:58;1.20;;;1.20;;
14373;SDS011;7270;49.004;12.066;2023-02-01T01:08:24;1.10;;;1.10;;
14373;SDS011;7270;49.004;12.066;2023-02-01T01:10:51;1.20;;;1.20;;
14373;SDS011;7270;49.004;12.066;2023-02-01T01:13:18;1.20;;;1.20;;
14373;SDS011;7270;49.004;12.066;2023-02-01T01:15:45;1.27;;;1.23;;
14373;SDS011;7270;49.004;12.066;2023-02-01T01:18:11;1.00;;;1.00;;
14373;SDS011;7270;49.004;12.066;2023-02-01T01:20:38;1.13;;;1.13;;
14373;SDS011;7270;49.004;12.066;2023-02-01T01:23:05;1.10;;;1.10;;
14373;SDS011;7270;49.004;12.066;2023-02-01T01:25:31;1.10;;;1.10;;
14373;SDS011;7270;49.004;12.066;2023-02-01T01:27:58;1.10;;;1.10;;
14373;SDS011;7270;49.004;12.066;2023-02-01T01:30:25;1.23;;;1.20;;
14373;SDS011;7270;49.004;12.066;2023-02-01T01:32:52;1.10;;;1.10;;
14373;SDS011;7270;49.004;12.066;2023-02-01T01:35:18;1.10;;;1.10;;
14373;SDS011;7270;49.004;12.066;2023-02-01T01:37:44;1.20;;;1.20;;
14373;SDS011;7270;49.004;12.066;2023-02-01T01:40:11;1.10;;;1.10;;
14373;SDS011;7270;49.004;12.066;2023-02-01T01:42:38;1.00;;;1.00;;
14373;SDS011;7270;49.004;12.066;2023-02-01T01:45:05;1.10;;;1.10;;
14373;SDS011;7270;49.004;12.066;2023-02-01T01:47:35;1.10;;;1.10;;
14373;SDS011;7270;49.004;12.066;2023-02-01T01:50:03;1.20;;;1.20;;
14373;SDS011;7270;49.004;12.066;2023-02-01T01:52:30;1.10;;;1.10;;
14373;SDS011;7270;49.004;12.066;2023-02-01T01:54:57;1.10;;;1.10;;
14373;SDS011;7270;49.004;12.066;2023-02-01T01:57:25;1.00;;;1.00;;
14373;SDS011;7270;49.004;12.066;2023-02-01T02:00:00;1.20;;;1.20;;
14373;SDS011;7270;49.004;12.066;2023-02-01T02:02:28;1.10;;;1.10;;
14373;SDS011;7270;49.004;12.066;2023-02-01T02:04:56;1.20;;;1.20;;
14373;SDS011;7270;49.004;12.066;2023-02-01T02:07:23;1.20;;;1.20;;
14373;SDS011;7270;49.004;12.066;2023-02-01T02:09:50;1.10;;;1.10;;
14373;SDS011;7270;49.004;12.066;2023-02-01T02:12:17;1.20;;;1.20;;
14373;SDS011;7270;49.004;12.066;2023-02-01T02:14:43;1.10;;;1.10;;
14373;SDS011;7270;49.004;12.066;2023-02-01T02:17:14;1.10;;;1.10;;
14373;SDS011;7270;49.004;12.066;2023-02-01T02:25:29;1.20;;;1.20;;
14373;SDS011;7270;49.004;12.066;2023-02-01T02:28:00;1.10;;;1.10;;
14373;SDS011;7270;49.004;12.066;2023-02-01T02:36:12;1.10;;;1.10;;
14373;SDS011;7270;49.004;12.066;2023-02-01T02:38:41;1.20;;;1.20;;
14373;SDS011;7270;49.004;12.066;2023-02-01T02:41:13;1.10;;;1.10;;
14373;SDS011;7270;49.004;12.066;2023-02-01T02:44:03;1.00;;;1.00;;
14373;SDS011;7270;49.004;12.066;2023-02-01T02:46:49;1.10;;;1.10;;
14373;SDS011;7270;49.004;12.066;2023-02-01T02:49:35;1.23;;;1.23;;
14373;SDS011;7270;49.004;12.066;2023-02-01T02:52:04;1.10;;;1.10;;
14373;SDS011;7270;49.004;12.066;2023-02-01T02:54:49;1.10;;;1.10;;
14373;SDS011;7270;49.004;12.066;2023-02-01T02:57:18;1.00;;;1.00;;
14373;SDS011;7270;49.004;12.066;2023-02-01T03:00:03;1.20;;;1.20;;
14373;SDS011;7270;49.004;12.066;2023-02-01T03:02:48;1.10;;;1.10;;
14373;SDS011;7270;49.004;12.066;2023-02-01T03:05:32;1.20;;;1.20;;
14373;SDS011;7270;49.004;12.066;2023-02-01T03:08:04;1.10;;;1.10;;
14373;SDS011;7270;49.004;12.066;2023-02-01T03:10:33;1.10;;;1.10;;
14373;SDS011;7270;49.004;12.066;2023-02-01T03:13:02;1.10;;;1.10;;
14373;SDS011;7270;49.004;12.066;2023-02-01T03:15:31;1.10;;;1.10;;
14373;SDS011;7270;49.004;12.066;2023-02-01T03:17:59;1.00;;;1.00;;
14373;SDS011;7270;49.004;12.066;2023-02-01T03:20:27;1.07;;;1.07;;
14373;SDS011;7270;49.004;12.066;2023-02-01T03:22:53;1.27;;;1.27;;
14373;SDS011;7270;49.004;12.066;2023-02-01T03:25:22;1.10;;;1.10;;
14373;SDS011;7270;49.004;12.066;2023-02-01T03:27:51;1.10;;;1.10;;
14373;SDS011;7270;49.004;12.066;2023-02-01T03:30:19;1.10;;;1.10;;
14373;SDS011;7270;49.004;12.066;2023-02-01T03:32:47;1.10;;;1.10;;
14373;SDS011;7270;49.004;12.066;2023-02-01T03:35:28;1.20;;;1.20;;
14373;SDS011;7270;49.004;12.066;2023-02-01T03:37:56;1.10;;;1.10;;
14373;SDS011;7270;49.004;12.066;2023-02-01T03:40:28;1.03;;;1.03;;
14373;SDS011;7270;49.004;12.066;2023-02-01T03:42:56;1.00;;;1.00;;
14373;SDS011;7270;49.004;12.066;2023-02-01T03:45:26;1.20;;;1.20;;
14373;SDS011;7270;49.004;12.066;2023-02-01T03:47:55;1.10;;;1.10;;
14373;SDS011;7270;49.004;12.066;2023-02-01T03:50:22;1.23;;;1.20;;
14373;SDS011;7270;49.004;12.066;2023-02-01T03:52:51;1.07;;;1.07;;
14373;SDS011;7270;49.004;12.066;2023-02-01T03:55:19;1.10;;;1.10;;
14373;SDS011;7270;49.004;12.066;2023-02-01T03:57:48;1.00;;;1.00;;
14373;SDS011;7270;49.004;12.066;2023-02-01T04:00:19;1.20;;;1.20;;
14373;SDS011;7270;49.004;12.066;2023-02-01T04:02:46;1.10;;;1.10;;
14373;SDS011;7270;49.004;12.066;2023-02-01T04:05:13;1.10;;;1.10;;
14373;SDS011;7270;49.004;12.066;2023-02-01T04:07:39;1.20;;;1.20;;
14373;SDS011;7270;49.004;12.066;2023-02-01T04:10:06;1.10;;;1.10;;
14373;SDS011;7270;49.004;12.066;2023-02-01T04:12:32;1.20;;;1.20;;
14373;SDS011;7270;49.004;12.066;2023-02-01T04:15:00;1.10;;;1.10;;
14373;SDS011;7270;49.004;12.066;2023-02-01T04:17:26;1.10;;;1.10;;
14373;SDS011;7270;49.004;12.066;2023-02-01T04:19:53;1.20;;;1.20;;
14373;SDS011;7270;49.004;12.066;2023-02-01T04:22:20;1.10;;;1.10;;
14373;SDS011;7270;49.004;12.066;2023-02-01T04:24:47;1.10;;;1.10;;
14373;SDS011;7270;49.004;12.066;2023-02-01T04:27:14;1.10;;;1.10;;
14373;SDS011;7270;49.004;12.066;2023-02-01T04:29:40;1.00;;;1.00;;
14373;SDS011;7270;49.004;12.066;2023-02-01T04:32:08;1.20;;;1.20;;
14373;SDS011;7270;49.004;12.066;2023-02-01T04:34:34;1.10;;;1.10;;
14373;SDS011;7270;49.004;12.066;2023-02-01T04:37:01;1.17;;;1.17;;
14373;SDS011;7270;49.004;12.066;2023-02-01T04:39:27;1.13;;;1.13;;
14373;SDS011;7270;49.004;12.066;2023-02-01T04:41:53;1.10;;;1.10;;
14373;SDS011;7270;49.004;12.066;2023-02-01T04:44:20;1.10;;;1.10;;
14373;SDS011;7270;49.004;12.066;2023-02-01T04:46:46;1.20;;;1.20;;
14373;SDS011;7270;49.004;12.066;2023-02-01T04:49:14;1.10;;;1.10;;
14373;SDS011;7270;49.004;12.066;2023-02-01T04:51:41;1.10;;;1.10;;
14373;SDS011;7270;49.004;12.066;2023-02-01T04:54:07;1.10;;;1.10;;
14373;SDS011;7270;49.004;12.066;2023-02-01T04:56:36;1.10;;;1.10;;
14373;SDS011;7270;49.004;12.066;2023-02-01T04:59:02;1.10;;;1.10;;
14373;SDS011;7270;49.004;12.066;2023-02-01T05:01:29;1.10;;;1.10;;
14373;SDS011;7270;49.004;12.066;2023-02-01T05:03:55;1.20;;;1.20;;
14373;SDS011;7270;49.004;12.066;2023-02-01T05:06:23;1.20;;;1.20;;
14373;SDS011;7270;49.004;12.066;2023-02-01T05:08:50;1.20;;;1.20;;
14373;SDS011;7270;49.004;12.066;2023-02-01T05:11:16;1.10;;;1.10;;
14373;SDS011;7270;49.004;12.066;2023-02-01T05:13:57;1.20;;;1.20;;
14373;SDS011;7270;49.004;12.066;2023-02-01T05:16:23;1.10;;;1.10;;
14373;SDS011;7270;49.004;12.066;2023-02-01T05:18:49;1.10;;;1.10;;
14373;SDS011;7270;49.004;12.066;2023-02-01T05:21:16;1.10;;;1.10;;
14373;SDS011;7270;49.004;12.066;2023-02-01T05:23:44;1.20;;;1.20;;
14373;SDS011;7270;49.004;12.066;2023-02-01T05:26:28;1.10;;;1.10;;
14373;SDS011;7270;49.004;12.066;2023-02-01T05:28:54;1.20;;;1.20;;
14373;SDS011;7270;49.004;12.066;2023-02-01T05:31:20;1.10;;;1.10;;
14373;SDS011;7270;49.004;12.066;2023-02-01T05:33:47;1.20;;;1.20;;
14373;SDS011;7270;49.004;12.066;2023-02-01T05:36:13;1.10;;;1.10;;
14373;SDS011;7270;49.004;12.066;2023-02-01T05:38:39;1.13;;;1.13;;
14373;SDS011;7270;49.004;12.066;2023-02-01T05:41:07;1.10;;;1.10;;
14373;SDS011;7270;49.004;12.066;2023-02-01T05:43:34;1.20;;;1.20;;
14373;SDS011;7270;49.004;12.066;2023-02-01T05:46:00;1.10;;;1.10;;
14373;SDS011;7270;49.004;12.066;2023-02-01T05:48:26;1.20;;;1.20;;
14373;SDS011;7270;49.004;12.066;2023-02-01T05:50:53;1.20;;;1.20;;
14373;SDS011;7270;49.004;12.066;2023-02-01T05:53:20;1.20;;;1.20;;
14373;SDS011;7270;49.004;12.066;2023-02-01T05:55:47;1.20;;;1.20;;
14373;SDS011;7270;49.004;12.066;2023-02-01T05:58:14;1.23;;;1.20;;
14373;SDS011;7270;49.004;12.066;2023-02-01T06:00:44;1.30;;;1.20;;
14373;SDS011;7270;49.004;12.066;2023-02-01T06:03:10;1.40;;;1.30;;
14373;SDS011;7270;49.004;12.066;2023-02-01T06:05:36;1.20;;;1.20;;
14373;SDS011;7270;49.004;12.066;2023-02-01T06:08:03;1.10;;;1.10;;
14373;SDS011;7270;49.004;12.066;2023-02-01T06:10:29;1.10;;;1.10;;
14373;SDS011;7270;49.004;12.066;2023-02-01T06:12:56;1.30;;;1.20;;
14373;SDS011;7270;49.004;12.066;2023-02-01T06:15:23;1.30;;;1.30;;
14373;SDS011;7270;49.004;12.066;2023-02-01T06:17:50;1.27;;;1.20;;
14373;SDS011;7270;49.004;12.066;2023-02-01T06:20:16;1.23;;;1.20;;
14373;SDS011;7270;49.004;12.066;2023-02-01T06:22:43;1.20;;;1.20;;
14373;SDS011;7270;49.004;12.066;2023-02-01T06:25:09;1.10;;;1.10;;
14373;SDS011;7270;49.004;12.066;2023-02-01T06:27:36;1.13;;;1.13;;
14373;SDS011;7270;49.004;12.066;2023-02-01T06:30:02;1.27;;;1.20;;
14373;SDS011;7270;49.004;12.066;2023-02-01T06:32:30;1.10;;;1.10;;
14373;SDS011;7270;49.004;12.066;2023-02-01T06:34:58;1.40;;;1.30;;
14373;SDS011;7270;49.004;12.066;2023-02-01T06:37:25;1.20;;;1.20;;
14373;SDS011;7270;49.004;12.066;2023-02-01T06:39:52;1.20;;;1.20;;
14373;SDS011;7270;49.004;12.066;2023-02-01T06:42:18;1.20;;;1.20;;
14373;SDS011;7270;49.004;12.066;2023-02-01T06:44:45;1.20;;;1.20;;
14373;SDS011;7270;49.004;12.066;2023-02-01T06:47:11;1.27;;;1.20;;
14373;SDS011;7270;49.004;12.066;2023-02-01T06:49:39;1.10;;;1.10;;
14373;SDS011;7270;49.004;12.066;2023-02-01T06:52:13;1.40;;;1.30;;
14373;SDS011;7270;49.004;12.066;2023-02-01T06:54:48;1.40;;;1.30;;
14373;SDS011;7270;49.004;12.066;2023-02-01T06:57:14;1.10;;;1.10;;
14373;SDS011;7270;49.004;12.066;2023-02-01T06:59:41;1.20;;;1.20;;
14373;SDS011;7270;49.004;12.066;2023-02-01T07:02:10;1.23;;;1.20;;
14373;SDS011;7270;49.004;12.066;2023-02-01T07:04:37;1.10;;;1.10;;
14373;SDS011;7270;49.004;12.066;2023-02-01T07:07:04;1.10;;;1.10;;
14373;SDS011;7270;49.004;12.066;2023-02-01T07:09:31;1.30;;;1.20;;
14373;SDS011;7270;49.004;12.066;2023-02-01T07:11:57;1.20;;;1.20;;
14373;SDS011;7270;49.004;12.066;2023-02-01T07:14:23;1.23;;;1.20;;
14373;SDS011;7270;49.004;12.066;2023-02-01T07:16:50;1.30;;;1.20;;
14373;SDS011;7270;49.004;12.066;2023-02-01T07:19:16;1.20;;;1.20;;
14373;SDS011;7270;49.004;12.066;2023-02-01T07:21:43;1.40;;;1.30;;
14373;SDS011;7270;49.004;12.066;2023-02-01T07:24:10;1.30;;;1.20;;
14373;SDS011;7270;49.004;12.066;2023-02-01T07:26:37;1.40;;;1.30;;
14373;SDS011;7270;49.004;12.066;2023-02-01T07:29:03;1.30;;;1.20;;
14373;SDS011;7270;49.004;12.066;2023-02-01T07:31:31;1.20;;;1.20;;
14373;SDS011;7270;49.004;12.066;2023-02-01T07:33:57;1.50;;;1.40;;
14373;SDS011;7270;49.004;12.066;2023-02-01T07:36:24;1.40;;;1.30;;
14373;SDS011;7270;49.004;12.066;2023-02-01T07:38:50;1.30;;;1.20;;
14373;SDS011;7270;49.004;12.066;2023-02-01T07:41:20;1.40;;;1.30;;
14373;SDS011;7270;49.004;12.066;2023-02-01T07:43:46;1.10;;;1.10;;
14373;SDS011;7270;49.004;12.066;2023-02-01T07:46:12;1.20;;;1.20;;
14373;SDS011;7270;49.004;12.066;2023-02-01T07:48:40;1.40;;;1.30;;
14373;SDS011;7270;49.004;12.066;2023-02-01T07:51:08;1.20;;;1.20;;
14373;SDS011;7270;49.004;12.066;2023-02-01T07:53:35;1.40;;;1.30;;
14373;SDS011;7270;49.004;12.066;2023-02-01T07:56:01;1.50;;;1.40;;
14373;SDS011;7270;49.004;12.066;2023-02-01T07:58:29;1.50;;;1.40;;
14373;SDS011;7270;49.004;12.066;2023-02-01T08:00:56;1.60;;;1.50;;
14373;SDS011;7270;49.004;12.066;2023-02-01T08:03:40;1.80;;;1.70;;
14373;SDS011;7270;49.004;12.066;2023-02-01T08:06:06;2.10;;;2.00;;
14373;SDS011;7270;49.004;12.066;2023-02-01T08:08:33;1.90;;;1.80;;
14373;SDS011;7270;49.004;12.066;2023-02-01T08:10:59;2.00;;;1.90;;
14373;SDS011;7270;49.004;12.066;2023-02-01T08:13:26;1.90;;;1.80;;
14373;SDS011;7270;49.004;12.066;2023-02-01T08:15:54;1.80;;;1.70;;
14373;SDS011;7270;49.004;12.066;2023-02-01T08:18:23;2.20;;;2.10;;
14373;SDS011;7270;49.004;12.066;2023-02-01T08:20:49;1.80;;;1.70;;
14373;SDS011;7270;49.004;12.066;2023-02-01T08:23:16;1.80;;;1.70;;
14373;SDS011;7270;49.004;12.066;2023-02-01T08:25:42;1.90;;;1.80;;
14373;SDS011;7270;49.004;12.066;2023-02-01T08:28:09;1.90;;;1.80;;
14373;SDS011;7270;49.004;12.066;2023-02-01T08:30:36;1.80;;;1.70;;
14373;SDS011;7270;49.004;12.066;2023-02-01T08:33:04;1.80;;;1.70;;
14373;SDS011;7270;49.004;12.066;2023-02-01T08:35:38;1.80;;;1.70;;
14373;SDS011;7270;49.004;12.066;2023-02-01T08:38:05;1.80;;;1.70;;
14373;SDS011;7270;49.004;12.066;2023-02-01T08:40:31;2.00;;;1.90;;
14373;SDS011;7270;49.004;12.066;2023-02-01T08:42:57;1.70;;;1.60;;
14373;SDS011;7270;49.004;12.066;2023-02-01T08:45:26;1.80;;;1.70;;
14373;SDS011;7270;49.004;12.066;2023-02-01T08:47:53;1.90;;;1.80;;
14373;SDS011;7270;49.004;12.066;2023-02-01T08:50:21;1.90;;;1.80;;
14373;SDS011;7270;49.004;12.066;2023-02-01T08:52:48;1.80;;;1.70;;
14373;SDS011;7270;49.004;12.066;2023-02-01T08:55:14;1.80;;;1.70;;
14373;SDS011;7270;49.004;12.066;2023-02-01T08:57:41;1.83;;;1.73;;
14373;SDS011;7270;49.004;12.066;2023-02-01T09:00:08;1.80;;;1.70;;
14373;SDS011;7270;49.004;12.066;2023-02-01T09:02:36;1.80;;;1.70;;
14373;SDS011;7270;49.004;12.066;2023-02-01T09:05:02;1.73;;;1.63;;
14373;SDS011;7270;49.004;12.066;2023-02-01T09:07:31;1.70;;;1.60;;
14373;SDS011;7270;49.004;12.066;2023-02-01T09:09:57;1.87;;;1.77;;
14373;SDS011;7270;49.004;12.066;2023-02-01T09:12:26;1.70;;;1.60;;
14373;SDS011;7270;49.004;12.066;2023-02-01T09:14:54;1.80;;;1.70;;
14373;SDS011;7270;49.004;12.066;2023-02-01T09:17:22;1.70;;;1.60;;
14373;SDS011;7270;49.004;12.066;2023-02-01T09:19:58;1.70;;;1.60;;
14373;SDS011;7270;49.004;12.066;2023-02-01T09:22:25;1.70;;;1.60;;
14373;SDS011;7270;49.004;12.066;2023-02-01T09:24:53;1.70;;;1.60;;
14373;SDS011;7270;49.004;12.066;2023-02-01T09:27:19;1.80;;;1.70;;
14373;SDS011;7270;49.004;12.066;2023-02-01T09:29:46;1.70;;;1.60;;
14373;SDS011;7270;49.004;12.066;2023-02-01T09:32:17;1.70;;;1.60;;
14373;SDS011;7270;49.004;12.066;2023-02-01T09:34:43;1.70;;;1.60;;
14373;SDS011;7270;49.004;12.066;2023-02-01T09:37:09;1.80;;;1.70;;
14373;SDS011;7270;49.004;12.066;2023-02-01T09:39:36;1.70;;;1.60;;
14373;SDS011;7270;49.004;12.066;2023-02-01T09:42:10;1.63;;;1.53;;
14373;SDS011;7270;49.004;12.066;2023-02-01T09:44:49;1.70;;;1.60;;
14373;SDS011;7270;49.004;12.066;2023-02-01T09:47:20;1.63;;;1.53;;
14373;SDS011;7270;49.004;12.066;2023-02-01T09:49:49;1.70;;;1.60;;
14373;SDS011;7270;49.004;12.066;2023-02-01T09:52:17;1.47;;;1.37;;
14373;SDS011;7270;49.004;12.066;2023-02-01T09:54:47;1.50;;;1.40;;
14373;SDS011;7270;49.004;12.066;2023-02-01T09:57:18;1.60;;;1.50;;
14373;SDS011;7270;49.004;12.066;2023-02-01T09:59:46;1.50;;;1.40;;
14373;SDS011;7270;49.004;12.066;2023-02-01T10:02:15;1.53;;;1.43;;
14373;SDS011;7270;49.004;12.066;2023-02-01T10:04:42;1.50;;;1.40;;
14373;SDS011;7270;49.004;12.066;2023-02-01T10:07:16;1.60;;;1.50;;
14373;SDS011;7270;49.004;12.066;2023-02-01T10:09:50;1.50;;;1.40;;
14373;SDS011;7270;49.004;12.066;2023-02-01T10:12:33;1.60;;;1.50;;
14373;SDS011;7270;49.004;12.066;2023-02-01T10:15:06;1.53;;;1.43;;
14373;SDS011;7270;49.004;12.066;2023-02-01T10:17:44;1.40;;;1.30;;
14373;SDS011;7270;49.004;12.066;2023-02-01T10:20:12;1.40;;;1.30;;
14373;SDS011;7270;49.004;12.066;2023-02-01T10:22:43;1.40;;;1.30;;
14373;SDS011;7270;49.004;12.066;2023-02-01T10:25:13;1.20;;;1.20;;
14373;SDS011;7270;49.004;12.066;2023-02-01T10:27:41;1.50;;;1.40;;
14373;SDS011;7270;49.004;12.066;2023-02-01T10:30:14;1.13;;;1.13;;
14373;SDS011;7270;49.004;12.066;2023-02-01T10:32:40;1.53;;;1.43;;
14373;SDS011;7270;49.004;12.066;2023-02-01T10:35:08;1.30;;;1.20;;
14373;SDS011;7270;49.004;12.066;2023-02-01T10:37:37;1.40;;;1.30;;
14373;SDS011;7270;49.004;12.066;2023-02-01T10:40:11;1.30;;;1.20;;
14373;SDS011;7270;49.004;12.066;2023-02-01T10:42:39;1.40;;;1.30;;
14373;SDS011;7270;49.004;12.066;2023-02-01T10:45:12;1.20;;;1.20;;
14373;SDS011;7270;49.004;12.066;2023-02-01T10:47:39;1.10;;;1.10;;
14373;SDS011;7270;49.004;12.066;2023-02-01T10:50:09;1.33;;;1.23;;
14373;SDS011;7270;49.004;12.066;2023-02-01T10:52:41;1.40;;;1.30;;
14373;SDS011;7270;49.004;12.066;2023-02-01T10:55:25;1.40;;;1.30;;
14373;SDS011;7270;49.004;12.066;2023-02-01T10:57:54;1.20;;;1.20;;
14373;SDS011;7270;49.004;12.066;2023-02-01T11:00:22;1.20;;;1.20;;
14373;SDS011;7270;49.004;12.066;2023-02-01T11:02:49;1.27;;;1.20;;
14373;SDS011;7270;49.004;12.066;2023-02-01T11:05:16;1.10;;;1.10;;
14373;SDS011;7270;49.004;12.066;2023-02-01T11:07:46;1.10;;;1.10;;
14373;SDS011;7270;49.004;12.066;2023-02-01T11:10:33;1.20;;;1.20;;
14373;SDS011;7270;49.004;12.066;2023-02-01T11:13:01;1.10;;;1.10;;
14373;SDS011;7270;49.004;12.066;2023-02-01T11:15:29;1.20;;;1.20;;
14373;SDS011;7270;49.004;12.066;2023-02-01T11:17:56;1.10;;;1.10;;
14373;SDS011;7270;49.004;12.066;2023-02-01T11:20:35;1.10;;;1.10;;
14373;SDS011;7270;49.004;12.066;2023-02-01T11:23:03;1.40;;;1.30;;
14373;SDS011;7270;49.004;12.066;2023-02-01T11:25:30;1.20;;;1.20;;
14373;SDS011;7270;49.004;12.066;2023-02-01T11:27:58;1.20;;;1.20;;
14373;SDS011;7270;49.004;12.066;2023-02-01T11:30:27;1.30;;;1.30;;
14373;SDS011;7270;49.004;12.066;2023-02-01T11:32:58;1.20;;;1.20;;
14373;SDS011;7270;49.004;12.066;2023-02-01T11:35:26;1.30;;;1.20;;
14373;SDS011;7270;49.004;12.066;2023-02-01T11:37:55;1.30;;;1.20;;
14373;SDS011;7270;49.004;12.066;2023-02-01T11:40:26;1.10;;;1.10;;
14373;SDS011;7270;49.004;12.066;2023-02-01T11:42:53;1.30;;;1.20;;
14373;SDS011;7270;49.004;12.066;2023-02-01T11:45:23;1.30;;;1.20;;
14373;SDS011;7270;49.004;12.066;2023-02-01T11:47:51;1.10;;;1.10;;
14373;SDS011;7270;49.004;12.066;2023-02-01T11:50:21;1.10;;;1.10;;
14373;SDS011;7270;49.004;12.066;2023-02-01T11:52:52;1.20;;;1.20;;
14373;SDS011;7270;49.004;12.066;2023-02-01T11:58:09;1.30;;;1.30;;
14373;SDS011;7270;49.004;12.066;2023-02-01T12:00:43;1.20;;;1.20;;
14373;SDS011;7270;49.004;12.066;2023-02-01T12:05:55;1.20;;;1.20;;
14373;SDS011;7270;49.004;12.066;2023-02-01T12:08:37;1.17;;;1.17;;
14373;SDS011;7270;49.004;12.066;2023-02-01T12:11:20;1.40;;;1.30;;
14373;SDS011;7270;49.004;12.066;2023-02-01T12:13:51;1.40;;;1.30;;
14373;SDS011;7270;49.004;12.066;2023-02-01T12:16:23;1.10;;;1.10;;
14373;SDS011;7270;49.004;12.066;2023-02-01T12:18:57;1.20;;;1.20;;
14373;SDS011;7270;49.004;12.066;2023-02-01T12:21:34;1.00;;;1.00;;
14373;SDS011;7270;49.004;12.066;2023-02-01T12:24:17;1.20;;;1.20;;
14373;SDS011;7270;49.004;12.066;2023-02-01T12:26:46;1.10;;;1.10;;
14373;SDS011;7270;49.004;12.066;2023-02-01T12:32:11;1.30;;;1.20;;
14373;SDS011;7270;49.004;12.066;2023-02-01T12:34:46;1.30;;;1.20;;
14373;SDS011;7270;49.004;12.066;2023-02-01T12:37:20;1.30;;;1.20;;
14373;SDS011;7270;49.004;12.066;2023-02-01T12:39:51;1.20;;;1.20;;
14373;SDS011;7270;49.004;12.066;2023-02-01T12:42:21;1.10;;;1.10;;
14373;SDS011;7270;49.004;12.066;2023-02-01T12:44:50;1.10;;;1.10;;
14373;SDS011;7270;49.004;12.066;2023-02-01T12:47:18;1.07;;;1.07;;
14373;SDS011;7270;49.004;12.066;2023-02-01T12:49:52;1.10;;;1.10;;
14373;SDS011;7270;49.004;12.066;2023-02-01T12:52:26;1.20;;;1.20;;
14373;SDS011;7270;49.004;12.066;2023-02-01T12:54:55;1.10;;;1.10;;
14373;SDS011;7270;49.004;12.066;2023-02-01T12:57:25;1.10;;;1.10;;
14373;SDS011;7270;49.004;12.066;2023-02-01T12:59:53;1.10;;;1.10;;
14373;SDS011;7270;49.004;12.066;2023-02-01T13:02:22;1.50;;;1.40;;
14373;SDS011;7270;49.004;12.066;2023-02-01T13:04:53;1.10;;;1.10;;
14373;SDS011;7270;49.004;12.066;2023-02-01T13:07:25;1.10;;;1.10;;
14373;SDS011;7270;49.004;12.066;2023-02-01T13:09:55;1.10;;;1.10;;
14373;SDS011;7270;49.004;12.066;2023-02-01T13:12:24;1.20;;;1.20;;
14373;SDS011;7270;49.004;12.066;2023-02-01T13:14:52;1.20;;;1.20;;
14373;SDS011;7270;49.004;12.066;2023-02-01T13:17:21;1.10;;;1.10;;
14373;SDS011;7270;49.004;12.066;2023-02-01T13:19:50;1.00;;;1.00;;
14373;SDS011;7270;49.004;12.066;2023-02-01T13:22:19;1.30;;;1.30;;
14373;SDS011;7270;49.004;12.066;2023-02-01T13:24:52;1.10;;;1.10;;
14373;SDS011;7270;49.004;12.066;2023-02-01T13:27:20;1.10;;;1.10;;
14373;SDS011;7270;49.004;12.066;2023-02-01T13:29:49;1.10;;;1.10;;
14373;SDS011;7270;49.004;12.066;2023-02-01T13:32:30;1.00;;;1.00;;
14373;SDS011;7270;49.004;12.066;2023-02-01T13:37:52;1.17;;;1.17;;
14373;SDS011;7270;49.004;12.066;2023-02-01T13:40:31;1.10;;;1.10;;
14373;SDS011;7270;49.004;12.066;2023-02-01T13:43:00;1.27;;;1.20;;
14373;SDS011;7270;49.004;12.066;2023-02-01T13:45:29;1.30;;;1.20;;
14373;SDS011;7270;49.004;12.066;2023-02-01T13:47:57;1.20;;;1.20;;
14373;SDS011;7270;49.004;12.066;2023-02-01T13:50:24;1.10;;;1.10;;
14373;SDS011;7270;49.004;12.066;2023-02-01T13:52:53;1.10;;;1.10;;
14373;SDS011;7270;49.004;12.066;2023-02-01T13:55:26;1.00;;;1.00;;
14373;SDS011;7270;49.004;12.066;2023-02-01T13:58:03;1.10;;;1.10;;
14373;SDS011;7270;49.004;12.066;2023-02-01T14:00:30;1.10;;;1.10;;
14373;SDS011;7270;49.004;12.066;2023-02-01T14:08:36;1.10;;;1.10;;
14373;SDS011;7270;49.004;12.066;2023-02-01T14:11:03;1.20;;;1.20;;
14373;SDS011;7270;49.004;12.066;2023-02-01T14:13:31;1.10;;;1.10;;
14373;SDS011;7270;49.004;12.066;2023-02-01T14:16:12;1.30;;;1.30;;
14373;SDS011;7270;49.004;12.066;2023-02-01T14:18:49;1.10;;;1.10;;
14373;SDS011;7270;49.004;12.066;2023-02-01T14:21:17;1.20;;;1.20;;
14373;SDS011;7270;49.004;12.066;2023-02-01T14:23:46;1.23;;;1.20;;
14373;SDS011;7270;49.004;12.066;2023-02-01T14:26:14;1.20;;;1.20;;
14373;SDS011;7270;49.004;12.066;2023-02-01T14:28:49;1.10;;;1.10;;
14373;SDS011;7270;49.004;12.066;2023-02-01T14:31:17;1.20;;;1.20;;
14373;SDS011;7270;49.004;12.066;2023-02-01T14:33:48;1.20;;;1.20;;
14373;SDS011;7270;49.004;12.066;2023-02-01T14:36:15;1.10;;;1.10;;
14373;SDS011;7270;49.004;12.066;2023-02-01T14:38:47;1.10;;;1.10;;
14373;SDS011;7270;49.004;12.066;2023-02-01T14:41:26;1.20;;;1.20;;
14373;SDS011;7270;49.004;12.066;2023-02-01T14:49:23;1.20;;;1.20;;
14373;SDS011;7270;49.004;12.066;2023-02-01T14:51:50;1.10;;;1.10;;
14373;SDS011;7270;49.004;12.066;2023-02-01T14:54:18;1.30;;;1.30;;
14373;SDS011;7270;49.004;12.066;2023-02-01T14:56:45;1.30;;;1.20;;
14373;SDS011;7270;49.004;12.066;2023-02-01T14:59:12;1.10;;;1.10;;
14373;SDS011;7270;49.004;12.066;2023-02-01T15:01:46;1.10;;;1.10;;
14373;SDS011;7270;49.004;12.066;2023-02-01T15:04:13;1.40;;;1.30;;
14373;SDS011;7270;49.004;12.066;2023-02-01T15:06:45;1.10;;;1.10;;
14373;SDS011;7270;49.004;12.066;2023-02-01T15:09:14;1.20;;;1.20;;
14373;SDS011;7270;49.004;12.066;2023-02-01T15:11:58;1.20;;;1.20;;
14373;SDS011;7270;49.004;12.066;2023-02-01T15:14:24;1.10;;;1.10;;
14373;SDS011;7270;49.004;12.066;2023-02-01T15:16:51;1.10;;;1.10;;
14373;SDS011;7270;49.004;12.066;2023-02-01T15:19:19;1.30;;;1.20;;
14373;SDS011;7270;49.004;12.066;2023-02-01T15:21:49;1.10;;;1.10;;
14373;SDS011;7270;49.004;12.066;2023-02-01T15:24:20;1.30;;;1.20;;
14373;SDS011;7270;49.004;12.066;2023-02-01T15:26:47;1.10;;;1.10;;
14373;SDS011;7270;49.004;12.066;2023-02-01T15:29:16;1.10;;;1.10;;
14373;SDS011;7270;49.004;12.066;2023-02-01T15:31:44;1.20;;;1.20;;
14373;SDS011;7270;49.004;12.066;2023-02-01T15:34:11;1.23;;;1.20;;